sensor_id;sensor_type;location;lat;lon;timestamp;P1;durP1;ratioP1;P2;durP2;ratioP2
22778;SDS011;11556;51.194;3.800;2023-04-24T00:00:25;19.20;;;10.00;;
22778;SDS011;11556;51.194;3.800;2023-04-24T00:02:50;17.77;;;10.00;;
22778;SDS011;11556;51.194;3.800;2023-04-24T00:05:16;16.63;;;8.85;;
22778;SDS011;11556;51.194;3.800;2023-04-24T00:07:43;16.70;;;7.50;;
22778;SDS011;11556;51.194;3.800;2023-04-24T00:10:10;14.35;;;7.47;;
22778;SDS011;11556;51.194;3.800;2023-04-24T00:12:36;10.60;;;6.82;;
22778;SDS011;11556;51.194;3.800;2023-04-24T00:15:02;13.35;;;6.03;;
22778;SDS011;11556;51.194;3.800;2023-04-24T00:17:28;12.90;;;5.68;;
22778;SDS011;11556;51.194;3.800;2023-04-24T00:19:56;10.88;;;5.32;;
22778;SDS011;11556;51.194;3.800;2023-04-24T00:22:26;6.13;;;4.60;;
22778;SDS011;11556;51.194;3.800;2023-04-24T00:24:52;8.25;;;4.00;;
22778;SDS011;11556;51.194;3.800;2023-04-24T00:27:18;8.50;;;4.47;;
22778;SDS011;11556;51.194;3.800;2023-04-24T00:29:44;6.35;;;4.30;;
22778;SDS011;11556;51.194;3.800;2023-04-24T00:32:09;9.13;;;4.32;;
22778;SDS011;11556;51.194;3.800;2023-04-24T00:34:35;8.43;;;4.40;;
22778;SDS011;11556;51.194;3.800;2023-04-24T00:37:01;10.55;;;4.85;;
22778;SDS011;11556;51.194;3.800;2023-04-24T00:39:27;5.68;;;4.40;;
22778;SDS011;11556;51.194;3.800;2023-04-24T00:41:52;10.35;;;5.45;;
22778;SDS011;11556;51.194;3.800;2023-04-24T00:44:19;13.05;;;5.90;;
22778;SDS011;11556;51.194;3.800;2023-04-24T00:46:45;8.68;;;5.68;;
22778;SDS011;11556;51.194;3.800;2023-04-24T00:49:12;9.07;;;6.57;;
22778;SDS011;11556;51.194;3.800;2023-04-24T00:51:38;12.32;;;6.85;;
22778;SDS011;11556;51.194;3.800;2023-04-24T00:54:05;14.02;;;7.85;;
22778;SDS011;11556;51.194;3.800;2023-04-24T00:56:31;10.75;;;7.45;;
22778;SDS011;11556;51.194;3.800;2023-04-24T00:58:57;16.42;;;8.55;;
22778;SDS011;11556;51.194;3.800;2023-04-24T01:01:23;16.40;;;9.32;;
22778;SDS011;11556;51.194;3.800;2023-04-24T01:03:50;17.73;;;9.88;;
22778;SDS011;11556;51.194;3.800;2023-04-24T01:06:16;14.77;;;9.70;;
22778;SDS011;11556;51.194;3.800;2023-04-24T01:08:43;15.15;;;10.20;;
22778;SDS011;11556;51.194;3.800;2023-04-24T01:11:11;15.48;;;10.13;;
22778;SDS011;11556;51.194;3.800;2023-04-24T01:13:37;15.57;;;10.13;;
22778;SDS011;11556;51.194;3.800;2023-04-24T01:16:03;19.33;;;10.75;;
22778;SDS011;11556;51.194;3.800;2023-04-24T01:18:28;15.52;;;9.48;;
22778;SDS011;11556;51.194;3.800;2023-04-24T01:20:56;14.43;;;9.40;;
22778;SDS011;11556;51.194;3.800;2023-04-24T01:23:23;15.00;;;9.75;;
22778;SDS011;11556;51.194;3.800;2023-04-24T01:25:49;15.98;;;9.30;;
22778;SDS011;11556;51.194;3.800;2023-04-24T01:28:16;15.05;;;9.75;;
22778;SDS011;11556;51.194;3.800;2023-04-24T01:30:42;14.40;;;9.48;;
22778;SDS011;11556;51.194;3.800;2023-04-24T01:33:08;20.98;;;10.48;;
22778;SDS011;11556;51.194;3.800;2023-04-24T01:35:35;18.70;;;10.50;;
22778;SDS011;11556;51.194;3.800;2023-04-24T01:38:02;17.50;;;10.75;;
22778;SDS011;11556;51.194;3.800;2023-04-24T01:40:28;21.70;;;11.45;;
22778;SDS011;11556;51.194;3.800;2023-04-24T01:42:54;21.15;;;12.70;;
22778;SDS011;11556;51.194;3.800;2023-04-24T01:45:19;26.38;;;14.70;;
22778;SDS011;11556;51.194;3.800;2023-04-24T01:47:45;25.98;;;14.52;;
22778;SDS011;11556;51.194;3.800;2023-04-24T01:50:11;25.48;;;14.30;;
22778;SDS011;11556;51.194;3.800;2023-04-24T01:52:37;33.53;;;16.00;;
22778;SDS011;11556;51.194;3.800;2023-04-24T01:55:03;30.08;;;17.52;;
22778;SDS011;11556;51.194;3.800;2023-04-24T01:57:32;30.73;;;17.45;;
22778;SDS011;11556;51.194;3.800;2023-04-24T01:59:58;34.65;;;19.33;;
22778;SDS011;11556;51.194;3.800;2023-04-24T02:02:24;34.25;;;17.38;;
22778;SDS011;11556;51.194;3.800;2023-04-24T02:04:52;37.72;;;19.50;;
22778;SDS011;11556;51.194;3.800;2023-04-24T02:07:19;32.50;;;18.27;;
22778;SDS011;11556;51.194;3.800;2023-04-24T02:09:45;33.40;;;19.58;;
22778;SDS011;11556;51.194;3.800;2023-04-24T02:12:11;35.28;;;19.73;;
22778;SDS011;11556;51.194;3.800;2023-04-24T02:14:36;38.60;;;20.65;;
22778;SDS011;11556;51.194;3.800;2023-04-24T02:17:02;45.17;;;22.40;;
22778;SDS011;11556;51.194;3.800;2023-04-24T02:19:28;35.67;;;18.88;;
22778;SDS011;11556;51.194;3.800;2023-04-24T02:21:54;39.03;;;20.83;;
22778;SDS011;11556;51.194;3.800;2023-04-24T02:24:19;36.08;;;19.10;;
22778;SDS011;11556;51.194;3.800;2023-04-24T02:26:45;31.92;;;17.02;;
22778;SDS011;11556;51.194;3.800;2023-04-24T02:29:11;30.70;;;15.40;;
22778;SDS011;11556;51.194;3.800;2023-04-24T02:31:36;26.52;;;13.18;;
22778;SDS011;11556;51.194;3.800;2023-04-24T02:34:02;20.33;;;10.95;;
22778;SDS011;11556;51.194;3.800;2023-04-24T02:36:28;22.85;;;10.18;;
22778;SDS011;11556;51.194;3.800;2023-04-24T02:38:53;16.83;;;8.50;;
22778;SDS011;11556;51.194;3.800;2023-04-24T02:41:19;19.13;;;8.45;;
22778;SDS011;11556;51.194;3.800;2023-04-24T02:43:45;15.52;;;7.70;;
22778;SDS011;11556;51.194;3.800;2023-04-24T02:46:10;19.42;;;6.82;;
22778;SDS011;11556;51.194;3.800;2023-04-24T02:48:36;14.23;;;6.35;;
22778;SDS011;11556;51.194;3.800;2023-04-24T02:51:02;12.68;;;6.20;;
22778;SDS011;11556;51.194;3.800;2023-04-24T02:53:28;10.77;;;5.15;;
22778;SDS011;11556;51.194;3.800;2023-04-24T02:55:55;11.52;;;5.75;;
22778;SDS011;11556;51.194;3.800;2023-04-24T02:58:22;14.48;;;5.68;;
22778;SDS011;11556;51.194;3.800;2023-04-24T03:00:47;14.02;;;5.60;;
22778;SDS011;11556;51.194;3.800;2023-04-24T03:03:13;12.55;;;5.53;;
22778;SDS011;11556;51.194;3.800;2023-04-24T03:05:40;12.75;;;5.32;;
22778;SDS011;11556;51.194;3.800;2023-04-24T03:08:05;11.57;;;5.40;;
22778;SDS011;11556;51.194;3.800;2023-04-24T03:10:31;18.15;;;6.22;;
22778;SDS011;11556;51.194;3.800;2023-04-24T03:12:57;12.20;;;5.80;;
22778;SDS011;11556;51.194;3.800;2023-04-24T03:15:23;14.77;;;6.60;;
22778;SDS011;11556;51.194;3.800;2023-04-24T03:17:48;13.73;;;6.60;;
22778;SDS011;11556;51.194;3.800;2023-04-24T03:20:14;11.68;;;6.65;;
22778;SDS011;11556;51.194;3.800;2023-04-24T03:22:40;13.77;;;7.13;;
22778;SDS011;11556;51.194;3.800;2023-04-24T03:25:06;18.67;;;7.45;;
22778;SDS011;11556;51.194;3.800;2023-04-24T03:27:34;15.45;;;7.55;;
22778;SDS011;11556;51.194;3.800;2023-04-24T03:29:59;19.15;;;7.88;;
22778;SDS011;11556;51.194;3.800;2023-04-24T03:32:25;16.35;;;7.63;;
22778;SDS011;11556;51.194;3.800;2023-04-24T03:34:51;14.85;;;8.07;;
22778;SDS011;11556;51.194;3.800;2023-04-24T03:37:17;15.88;;;8.25;;
22778;SDS011;11556;51.194;3.800;2023-04-24T03:39:42;18.25;;;8.52;;
22778;SDS011;11556;51.194;3.800;2023-04-24T03:42:08;19.30;;;9.00;;
22778;SDS011;11556;51.194;3.800;2023-04-24T03:44:34;23.67;;;9.77;;
22778;SDS011;11556;51.194;3.800;2023-04-24T03:47:01;22.80;;;10.27;;
22778;SDS011;11556;51.194;3.800;2023-04-24T03:49:27;23.80;;;10.80;;
22778;SDS011;11556;51.194;3.800;2023-04-24T03:51:52;24.23;;;11.60;;
22778;SDS011;11556;51.194;3.800;2023-04-24T03:54:18;27.23;;;12.63;;
22778;SDS011;11556;51.194;3.800;2023-04-24T03:56:44;36.67;;;13.05;;
22778;SDS011;11556;51.194;3.800;2023-04-24T03:59:10;35.95;;;13.85;;
22778;SDS011;11556;51.194;3.800;2023-04-24T04:01:37;32.70;;;13.88;;
22778;SDS011;11556;51.194;3.800;2023-04-24T04:04:03;38.58;;;14.70;;
22778;SDS011;11556;51.194;3.800;2023-04-24T04:06:29;30.65;;;13.30;;
22778;SDS011;11556;51.194;3.800;2023-04-24T04:08:56;33.75;;;13.38;;
22778;SDS011;11556;51.194;3.800;2023-04-24T04:11:23;34.78;;;13.90;;
22778;SDS011;11556;51.194;3.800;2023-04-24T04:13:48;35.13;;;13.15;;
22778;SDS011;11556;51.194;3.800;2023-04-24T04:16:14;30.77;;;13.35;;
22778;SDS011;11556;51.194;3.800;2023-04-24T04:18:42;28.20;;;12.88;;
22778;SDS011;11556;51.194;3.800;2023-04-24T04:21:08;30.75;;;12.70;;
22778;SDS011;11556;51.194;3.800;2023-04-24T04:23:33;30.80;;;13.18;;
22778;SDS011;11556;51.194;3.800;2023-04-24T04:25:59;32.22;;;13.45;;
22778;SDS011;11556;51.194;3.800;2023-04-24T04:28:26;30.52;;;13.18;;
22778;SDS011;11556;51.194;3.800;2023-04-24T04:30:52;29.63;;;13.60;;
22778;SDS011;11556;51.194;3.800;2023-04-24T04:33:19;34.28;;;14.90;;
22778;SDS011;11556;51.194;3.800;2023-04-24T04:35:45;31.98;;;13.60;;
22778;SDS011;11556;51.194;3.800;2023-04-24T04:38:14;34.05;;;15.25;;
22778;SDS011;11556;51.194;3.800;2023-04-24T04:40:40;37.35;;;15.00;;
22778;SDS011;11556;51.194;3.800;2023-04-24T04:43:06;45.70;;;16.05;;
22778;SDS011;11556;51.194;3.800;2023-04-24T04:45:32;32.45;;;15.05;;
22778;SDS011;11556;51.194;3.800;2023-04-24T04:47:59;31.88;;;14.20;;
22778;SDS011;11556;51.194;3.800;2023-04-24T04:50:26;35.63;;;14.75;;
22778;SDS011;11556;51.194;3.800;2023-04-24T04:52:52;36.83;;;15.18;;
22778;SDS011;11556;51.194;3.800;2023-04-24T04:55:17;31.20;;;14.38;;
22778;SDS011;11556;51.194;3.800;2023-04-24T04:57:45;36.47;;;14.40;;
22778;SDS011;11556;51.194;3.800;2023-04-24T05:00:13;34.72;;;15.23;;
22778;SDS011;11556;51.194;3.800;2023-04-24T05:02:39;36.20;;;15.35;;
22778;SDS011;11556;51.194;3.800;2023-04-24T05:05:05;36.65;;;15.55;;
22778;SDS011;11556;51.194;3.800;2023-04-24T05:07:32;30.92;;;14.38;;
22778;SDS011;11556;51.194;3.800;2023-04-24T05:09:58;35.50;;;15.02;;
22778;SDS011;11556;51.194;3.800;2023-04-24T05:12:24;30.77;;;14.68;;
22778;SDS011;11556;51.194;3.800;2023-04-24T05:14:51;36.28;;;15.10;;
22778;SDS011;11556;51.194;3.800;2023-04-24T05:17:17;39.30;;;16.35;;
22778;SDS011;11556;51.194;3.800;2023-04-24T05:19:43;40.65;;;15.93;;
22778;SDS011;11556;51.194;3.800;2023-04-24T05:22:10;41.17;;;15.65;;
22778;SDS011;11556;51.194;3.800;2023-04-24T05:24:36;38.55;;;15.48;;
22778;SDS011;11556;51.194;3.800;2023-04-24T05:27:03;36.38;;;15.07;;
22778;SDS011;11556;51.194;3.800;2023-04-24T05:29:32;36.72;;;15.05;;
22778;SDS011;11556;51.194;3.800;2023-04-24T05:31:58;36.80;;;15.95;;
22778;SDS011;11556;51.194;3.800;2023-04-24T05:34:24;36.58;;;14.77;;
22778;SDS011;11556;51.194;3.800;2023-04-24T05:36:50;40.17;;;15.13;;
22778;SDS011;11556;51.194;3.800;2023-04-24T05:39:16;34.35;;;15.25;;
22778;SDS011;11556;51.194;3.800;2023-04-24T05:41:42;31.33;;;14.73;;
22778;SDS011;11556;51.194;3.800;2023-04-24T05:44:08;32.10;;;15.80;;
22778;SDS011;11556;51.194;3.800;2023-04-24T05:46:34;44.22;;;15.75;;
22778;SDS011;11556;51.194;3.800;2023-04-24T05:49:00;39.33;;;16.30;;
22778;SDS011;11556;51.194;3.800;2023-04-24T05:51:26;34.35;;;15.38;;
22778;SDS011;11556;51.194;3.800;2023-04-24T05:53:52;38.35;;;14.77;;
22778;SDS011;11556;51.194;3.800;2023-04-24T05:56:18;35.85;;;14.77;;
22778;SDS011;11556;51.194;3.800;2023-04-24T05:58:45;33.78;;;14.38;;
22778;SDS011;11556;51.194;3.800;2023-04-24T06:01:11;37.85;;;13.02;;
22778;SDS011;11556;51.194;3.800;2023-04-24T06:03:38;34.97;;;12.63;;
22778;SDS011;11556;51.194;3.800;2023-04-24T06:06:05;27.27;;;12.05;;
22778;SDS011;11556;51.194;3.800;2023-04-24T06:08:31;26.85;;;10.05;;
22778;SDS011;11556;51.194;3.800;2023-04-24T06:10:57;28.80;;;10.13;;
22778;SDS011;11556;51.194;3.800;2023-04-24T06:13:23;20.40;;;9.25;;
22778;SDS011;11556;51.194;3.800;2023-04-24T06:15:49;20.95;;;9.52;;
22778;SDS011;11556;51.194;3.800;2023-04-24T06:18:15;25.65;;;9.13;;
22778;SDS011;11556;51.194;3.800;2023-04-24T06:20:40;21.27;;;9.23;;
22778;SDS011;11556;51.194;3.800;2023-04-24T06:23:06;21.92;;;8.93;;
22778;SDS011;11556;51.194;3.800;2023-04-24T06:25:32;22.20;;;9.00;;
22778;SDS011;11556;51.194;3.800;2023-04-24T06:27:57;21.75;;;9.02;;
22778;SDS011;11556;51.194;3.800;2023-04-24T06:30:23;23.70;;;9.40;;
22778;SDS011;11556;51.194;3.800;2023-04-24T06:32:50;21.52;;;9.38;;
22778;SDS011;11556;51.194;3.800;2023-04-24T06:35:16;24.50;;;8.43;;
22778;SDS011;11556;51.194;3.800;2023-04-24T06:37:42;24.48;;;8.63;;
22778;SDS011;11556;51.194;3.800;2023-04-24T06:40:08;25.80;;;9.88;;
22778;SDS011;11556;51.194;3.800;2023-04-24T06:42:35;29.88;;;10.88;;
22778;SDS011;11556;51.194;3.800;2023-04-24T06:45:01;23.33;;;8.00;;
22778;SDS011;11556;51.194;3.800;2023-04-24T06:47:26;25.48;;;7.72;;
22778;SDS011;11556;51.194;3.800;2023-04-24T06:49:52;17.85;;;6.88;;
22778;SDS011;11556;51.194;3.800;2023-04-24T06:52:18;17.92;;;6.95;;
22778;SDS011;11556;51.194;3.800;2023-04-24T06:54:44;24.67;;;7.22;;
22778;SDS011;11556;51.194;3.800;2023-04-24T06:57:10;17.40;;;6.53;;
22778;SDS011;11556;51.194;3.800;2023-04-24T06:59:36;19.10;;;6.28;;
22778;SDS011;11556;51.194;3.800;2023-04-24T07:02:02;18.55;;;5.88;;
22778;SDS011;11556;51.194;3.800;2023-04-24T07:04:28;19.00;;;6.10;;
22778;SDS011;11556;51.194;3.800;2023-04-24T07:06:55;17.92;;;5.88;;
22778;SDS011;11556;51.194;3.800;2023-04-24T07:09:21;15.77;;;5.25;;
22778;SDS011;11556;51.194;3.800;2023-04-24T07:11:48;14.68;;;4.65;;
22778;SDS011;11556;51.194;3.800;2023-04-24T07:14:15;20.88;;;5.63;;
22778;SDS011;11556;51.194;3.800;2023-04-24T07:16:41;14.95;;;5.82;;
22778;SDS011;11556;51.194;3.800;2023-04-24T07:19:07;15.18;;;5.13;;
22778;SDS011;11556;51.194;3.800;2023-04-24T07:21:33;14.32;;;4.88;;
22778;SDS011;11556;51.194;3.800;2023-04-24T07:23:59;18.65;;;5.30;;
22778;SDS011;11556;51.194;3.800;2023-04-24T07:26:26;13.27;;;5.25;;
22778;SDS011;11556;51.194;3.800;2023-04-24T07:28:53;18.52;;;4.47;;
22778;SDS011;11556;51.194;3.800;2023-04-24T07:31:18;18.63;;;4.47;;
22778;SDS011;11556;51.194;3.800;2023-04-24T07:33:44;10.82;;;4.20;;
22778;SDS011;11556;51.194;3.800;2023-04-24T07:36:10;15.57;;;3.83;;
22778;SDS011;11556;51.194;3.800;2023-04-24T07:38:40;11.55;;;3.47;;
22778;SDS011;11556;51.194;3.800;2023-04-24T07:43:38;14.75;;;3.72;;
22778;SDS011;11556;51.194;3.800;2023-04-24T07:46:04;11.05;;;3.50;;
22778;SDS011;11556;51.194;3.800;2023-04-24T07:48:31;12.65;;;3.60;;
22778;SDS011;11556;51.194;3.800;2023-04-24T07:50:56;12.52;;;3.85;;
22778;SDS011;11556;51.194;3.800;2023-04-24T07:53:22;11.77;;;3.15;;
22778;SDS011;11556;51.194;3.800;2023-04-24T07:55:48;11.63;;;3.20;;
22778;SDS011;11556;51.194;3.800;2023-04-24T07:58:13;13.63;;;3.38;;
22778;SDS011;11556;51.194;3.800;2023-04-24T08:00:40;15.48;;;3.60;;
22778;SDS011;11556;51.194;3.800;2023-04-24T08:03:05;14.82;;;4.75;;
22778;SDS011;11556;51.194;3.800;2023-04-24T08:05:31;18.95;;;4.85;;
22778;SDS011;11556;51.194;3.800;2023-04-24T08:07:57;19.70;;;5.72;;
22778;SDS011;11556;51.194;3.800;2023-04-24T08:10:23;18.08;;;5.85;;
22778;SDS011;11556;51.194;3.800;2023-04-24T08:12:49;17.83;;;5.78;;
22778;SDS011;11556;51.194;3.800;2023-04-24T08:15:15;16.65;;;5.68;;
22778;SDS011;11556;51.194;3.800;2023-04-24T08:17:41;18.40;;;5.43;;
22778;SDS011;11556;51.194;3.800;2023-04-24T08:20:07;13.35;;;4.60;;
22778;SDS011;11556;51.194;3.800;2023-04-24T08:22:38;8.27;;;3.65;;
22778;SDS011;11556;51.194;3.800;2023-04-24T08:25:05;8.52;;;3.30;;
22778;SDS011;11556;51.194;3.800;2023-04-24T08:27:31;12.40;;;3.20;;
22778;SDS011;11556;51.194;3.800;2023-04-24T08:29:57;10.52;;;3.35;;
22778;SDS011;11556;51.194;3.800;2023-04-24T08:32:23;7.60;;;2.58;;
22778;SDS011;11556;51.194;3.800;2023-04-24T08:34:49;13.15;;;3.08;;
22778;SDS011;11556;51.194;3.800;2023-04-24T08:37:14;14.45;;;3.17;;
22778;SDS011;11556;51.194;3.800;2023-04-24T08:39:40;10.55;;;2.67;;
22778;SDS011;11556;51.194;3.800;2023-04-24T08:42:07;9.23;;;2.85;;
22778;SDS011;11556;51.194;3.800;2023-04-24T08:44:34;5.32;;;2.35;;
22778;SDS011;11556;51.194;3.800;2023-04-24T08:47:04;10.98;;;3.15;;
22778;SDS011;11556;51.194;3.800;2023-04-24T08:49:31;12.98;;;3.13;;
22778;SDS011;11556;51.194;3.800;2023-04-24T08:51:57;10.27;;;2.90;;
22778;SDS011;11556;51.194;3.800;2023-04-24T08:54:24;8.68;;;2.55;;
22778;SDS011;11556;51.194;3.800;2023-04-24T08:56:50;11.57;;;2.55;;
22778;SDS011;11556;51.194;3.800;2023-04-24T08:59:19;7.32;;;2.67;;
22778;SDS011;11556;51.194;3.800;2023-04-24T09:01:46;8.07;;;2.30;;
22778;SDS011;11556;51.194;3.800;2023-04-24T09:04:13;12.55;;;3.10;;
22778;SDS011;11556;51.194;3.800;2023-04-24T09:06:41;9.32;;;3.25;;
22778;SDS011;11556;51.194;3.800;2023-04-24T09:09:07;5.80;;;3.10;;
22778;SDS011;11556;51.194;3.800;2023-04-24T09:11:34;9.50;;;3.80;;
22778;SDS011;11556;51.194;3.800;2023-04-24T09:14:01;9.13;;;3.30;;
22778;SDS011;11556;51.194;3.800;2023-04-24T09:16:27;12.80;;;3.97;;
22778;SDS011;11556;51.194;3.800;2023-04-24T09:18:53;10.32;;;3.25;;
22778;SDS011;11556;51.194;3.800;2023-04-24T09:21:20;7.20;;;3.22;;
22778;SDS011;11556;51.194;3.800;2023-04-24T09:23:47;8.75;;;3.20;;
22778;SDS011;11556;51.194;3.800;2023-04-24T09:26:24;5.38;;;2.60;;
22778;SDS011;11556;51.194;3.800;2023-04-24T09:28:50;9.80;;;3.10;;
22778;SDS011;11556;51.194;3.800;2023-04-24T09:31:18;8.57;;;2.92;;
22778;SDS011;11556;51.194;3.800;2023-04-24T09:34:21;7.93;;;2.63;;
22778;SDS011;11556;51.194;3.800;2023-04-24T09:36:39;12.13;;;3.30;;
22778;SDS011;11556;51.194;3.800;2023-04-24T09:39:11;7.88;;;2.90;;
22778;SDS011;11556;51.194;3.800;2023-04-24T09:41:51;9.75;;;3.28;;
22778;SDS011;11556;51.194;3.800;2023-04-24T09:44:19;3.55;;;2.70;;
22778;SDS011;11556;51.194;3.800;2023-04-24T09:46:53;6.88;;;3.03;;
22778;SDS011;11556;51.194;3.800;2023-04-24T09:49:24;11.38;;;3.05;;
22778;SDS011;11556;51.194;3.800;2023-04-24T09:51:51;9.93;;;3.28;;
22778;SDS011;11556;51.194;3.800;2023-04-24T09:54:20;6.43;;;2.78;;
22778;SDS011;11556;51.194;3.800;2023-04-24T09:56:48;8.68;;;2.70;;
22778;SDS011;11556;51.194;3.800;2023-04-24T09:59:16;7.18;;;2.58;;
22778;SDS011;11556;51.194;3.800;2023-04-24T10:01:43;7.03;;;3.00;;
22778;SDS011;11556;51.194;3.800;2023-04-24T10:06:43;5.50;;;2.42;;
22778;SDS011;11556;51.194;3.800;2023-04-24T10:09:09;9.23;;;2.92;;
22778;SDS011;11556;51.194;3.800;2023-04-24T10:11:37;12.38;;;3.78;;
22778;SDS011;11556;51.194;3.800;2023-04-24T10:14:05;13.85;;;3.45;;
22778;SDS011;11556;51.194;3.800;2023-04-24T10:16:31;8.38;;;3.10;;
22778;SDS011;11556;51.194;3.800;2023-04-24T10:18:58;11.82;;;3.20;;
22778;SDS011;11556;51.194;3.800;2023-04-24T10:21:25;7.82;;;2.88;;
22778;SDS011;11556;51.194;3.800;2023-04-24T10:23:52;8.35;;;2.58;;
22778;SDS011;11556;51.194;3.800;2023-04-24T10:26:19;6.07;;;3.00;;
22778;SDS011;11556;51.194;3.800;2023-04-24T10:28:47;8.88;;;2.90;;
22778;SDS011;11556;51.194;3.800;2023-04-24T10:31:13;5.93;;;2.17;;
22778;SDS011;11556;51.194;3.800;2023-04-24T10:33:42;3.75;;;2.10;;
22778;SDS011;11556;51.194;3.800;2023-04-24T10:36:12;3.63;;;2.45;;
22778;SDS011;11556;51.194;3.800;2023-04-24T10:38:39;5.55;;;1.58;;
22778;SDS011;11556;51.194;3.800;2023-04-24T10:43:39;5.07;;;1.90;;
22778;SDS011;11556;51.194;3.800;2023-04-24T10:46:05;7.40;;;2.33;;
22778;SDS011;11556;51.194;3.800;2023-04-24T10:48:32;7.28;;;2.20;;
22778;SDS011;11556;51.194;3.800;2023-04-24T10:50:58;5.22;;;2.38;;
22778;SDS011;11556;51.194;3.800;2023-04-24T10:53:29;5.05;;;2.00;;
22778;SDS011;11556;51.194;3.800;2023-04-24T10:56:06;4.30;;;1.80;;
22778;SDS011;11556;51.194;3.800;2023-04-24T10:58:36;7.43;;;1.90;;
22778;SDS011;11556;51.194;3.800;2023-04-24T11:03:31;3.22;;;1.67;;
22778;SDS011;11556;51.194;3.800;2023-04-24T11:06:06;6.43;;;1.40;;
22778;SDS011;11556;51.194;3.800;2023-04-24T11:08:37;5.60;;;1.70;;
22778;SDS011;11556;51.194;3.800;2023-04-24T11:11:11;4.23;;;1.70;;
22778;SDS011;11556;51.194;3.800;2023-04-24T11:16:21;3.67;;;1.40;;
22778;SDS011;11556;51.194;3.800;2023-04-24T11:19:10;2.60;;;1.33;;
22778;SDS011;11556;51.194;3.800;2023-04-24T11:24:38;4.15;;;1.38;;
22778;SDS011;11556;51.194;3.800;2023-04-24T11:27:06;4.13;;;1.73;;
22778;SDS011;11556;51.194;3.800;2023-04-24T11:29:42;5.75;;;1.40;;
22778;SDS011;11556;51.194;3.800;2023-04-24T11:34:45;2.03;;;1.20;;
22778;SDS011;11556;51.194;3.800;2023-04-24T11:37:12;3.28;;;1.05;;
22778;SDS011;11556;51.194;3.800;2023-04-24T11:39:39;4.57;;;1.60;;
22778;SDS011;11556;51.194;3.800;2023-04-24T11:42:06;4.55;;;1.17;;
22778;SDS011;11556;51.194;3.800;2023-04-24T11:44:36;5.80;;;1.25;;
22778;SDS011;11556;51.194;3.800;2023-04-24T11:47:04;4.35;;;1.10;;
22778;SDS011;11556;51.194;3.800;2023-04-24T11:49:30;3.10;;;1.10;;
22778;SDS011;11556;51.194;3.800;2023-04-24T11:51:56;4.45;;;1.40;;
22778;SDS011;11556;51.194;3.800;2023-04-24T11:54:22;4.10;;;1.30;;
22778;SDS011;11556;51.194;3.800;2023-04-24T11:56:47;5.35;;;1.60;;
22778;SDS011;11556;51.194;3.800;2023-04-24T11:59:14;2.28;;;1.05;;
22778;SDS011;11556;51.194;3.800;2023-04-24T12:01:44;1.88;;;1.25;;
22778;SDS011;11556;51.194;3.800;2023-04-24T12:04:14;4.43;;;1.60;;
22778;SDS011;11556;51.194;3.800;2023-04-24T12:06:58;6.18;;;1.20;;
22778;SDS011;11556;51.194;3.800;2023-04-24T12:09:25;3.33;;;1.30;;
22778;SDS011;11556;51.194;3.800;2023-04-24T12:11:54;3.35;;;1.20;;
22778;SDS011;11556;51.194;3.800;2023-04-24T12:14:22;5.20;;;1.67;;
22778;SDS011;11556;51.194;3.800;2023-04-24T12:16:48;5.93;;;1.38;;
22778;SDS011;11556;51.194;3.800;2023-04-24T12:19:21;4.00;;;1.30;;
22778;SDS011;11556;51.194;3.800;2023-04-24T12:22:01;2.40;;;1.30;;
22778;SDS011;11556;51.194;3.800;2023-04-24T12:24:29;5.15;;;1.40;;
22778;SDS011;11556;51.194;3.800;2023-04-24T12:26:55;3.03;;;1.25;;
22778;SDS011;11556;51.194;3.800;2023-04-24T12:29:21;6.07;;;1.30;;
22778;SDS011;11556;51.194;3.800;2023-04-24T12:31:47;4.28;;;0.90;;
22778;SDS011;11556;51.194;3.800;2023-04-24T12:34:17;6.88;;;1.33;;
22778;SDS011;11556;51.194;3.800;2023-04-24T12:36:47;4.57;;;1.25;;
22778;SDS011;11556;51.194;3.800;2023-04-24T12:39:16;5.25;;;1.40;;
22778;SDS011;11556;51.194;3.800;2023-04-24T12:42:16;1.73;;;1.00;;
22778;SDS011;11556;51.194;3.800;2023-04-24T12:44:36;2.90;;;1.27;;
22778;SDS011;11556;51.194;3.800;2023-04-24T12:47:02;4.22;;;1.13;;
22778;SDS011;11556;51.194;3.800;2023-04-24T12:49:27;3.83;;;1.40;;
22778;SDS011;11556;51.194;3.800;2023-04-24T12:51:55;4.05;;;1.20;;
22778;SDS011;11556;51.194;3.800;2023-04-24T12:54:21;3.38;;;1.08;;
22778;SDS011;11556;51.194;3.800;2023-04-24T12:56:47;5.25;;;1.20;;
22778;SDS011;11556;51.194;3.800;2023-04-24T12:59:13;3.28;;;1.27;;
22778;SDS011;11556;51.194;3.800;2023-04-24T13:01:39;4.32;;;1.35;;
22778;SDS011;11556;51.194;3.800;2023-04-24T13:04:05;2.15;;;1.23;;
22778;SDS011;11556;51.194;3.800;2023-04-24T13:06:31;3.75;;;1.15;;
22778;SDS011;11556;51.194;3.800;2023-04-24T13:08:57;4.80;;;1.17;;
22778;SDS011;11556;51.194;3.800;2023-04-24T13:11:23;4.00;;;1.10;;
22778;SDS011;11556;51.194;3.800;2023-04-24T13:13:50;3.38;;;0.85;;
22778;SDS011;11556;51.194;3.800;2023-04-24T13:16:16;1.95;;;0.80;;
22778;SDS011;11556;51.194;3.800;2023-04-24T13:18:41;2.88;;;1.00;;
22778;SDS011;11556;51.194;3.800;2023-04-24T13:21:07;3.30;;;1.10;;
22778;SDS011;11556;51.194;3.800;2023-04-24T13:23:33;4.40;;;1.02;;
22778;SDS011;11556;51.194;3.800;2023-04-24T13:25:59;3.83;;;1.10;;
22778;SDS011;11556;51.194;3.800;2023-04-24T13:28:26;1.63;;;0.90;;
22778;SDS011;11556;51.194;3.800;2023-04-24T13:30:52;4.18;;;1.10;;
22778;SDS011;11556;51.194;3.800;2023-04-24T13:33:18;2.28;;;1.10;;
22778;SDS011;11556;51.194;3.800;2023-04-24T13:35:43;2.13;;;0.85;;
22778;SDS011;11556;51.194;3.800;2023-04-24T13:38:09;3.47;;;1.00;;
22778;SDS011;11556;51.194;3.800;2023-04-24T13:40:35;3.53;;;1.00;;
22778;SDS011;11556;51.194;3.800;2023-04-24T13:43:01;2.58;;;0.77;;
22778;SDS011;11556;51.194;3.800;2023-04-24T13:45:27;5.25;;;1.38;;
22778;SDS011;11556;51.194;3.800;2023-04-24T13:47:52;2.97;;;0.90;;
22778;SDS011;11556;51.194;3.800;2023-04-24T13:50:19;5.30;;;1.33;;
22778;SDS011;11556;51.194;3.800;2023-04-24T13:52:45;2.90;;;1.30;;
22778;SDS011;11556;51.194;3.800;2023-04-24T13:55:11;1.15;;;0.93;;
22778;SDS011;11556;51.194;3.800;2023-04-24T13:57:36;3.88;;;1.00;;
22778;SDS011;11556;51.194;3.800;2023-04-24T14:00:02;3.72;;;1.08;;
22778;SDS011;11556;51.194;3.800;2023-04-24T14:02:29;4.88;;;1.05;;
22778;SDS011;11556;51.194;3.800;2023-04-24T14:04:55;2.45;;;1.30;;
22778;SDS011;11556;51.194;3.800;2023-04-24T14:07:20;3.90;;;1.90;;
22778;SDS011;11556;51.194;3.800;2023-04-24T14:09:46;4.90;;;1.20;;
22778;SDS011;11556;51.194;3.800;2023-04-24T14:12:12;3.47;;;1.40;;
22778;SDS011;11556;51.194;3.800;2023-04-24T14:14:39;4.32;;;1.63;;
22778;SDS011;11556;51.194;3.800;2023-04-24T14:17:04;3.53;;;1.55;;
22778;SDS011;11556;51.194;3.800;2023-04-24T14:19:31;4.55;;;1.30;;
22778;SDS011;11556;51.194;3.800;2023-04-24T14:21:56;2.47;;;1.08;;
22778;SDS011;11556;51.194;3.800;2023-04-24T14:24:23;4.95;;;1.60;;
22778;SDS011;11556;51.194;3.800;2023-04-24T14:26:49;4.65;;;1.33;;
22778;SDS011;11556;51.194;3.800;2023-04-24T14:29:14;1.98;;;1.13;;
22778;SDS011;11556;51.194;3.800;2023-04-24T14:31:42;2.55;;;1.38;;
22778;SDS011;11556;51.194;3.800;2023-04-24T14:34:07;5.68;;;1.40;;
22778;SDS011;11556;51.194;3.800;2023-04-24T14:36:34;4.22;;;1.30;;
22778;SDS011;11556;51.194;3.800;2023-04-24T14:39:00;4.20;;;1.85;;
22778;SDS011;11556;51.194;3.800;2023-04-24T14:41:30;1.90;;;1.23;;
22778;SDS011;11556;51.194;3.800;2023-04-24T14:43:56;2.05;;;1.15;;
22778;SDS011;11556;51.194;3.800;2023-04-24T14:46:22;2.83;;;1.30;;
22778;SDS011;11556;51.194;3.800;2023-04-24T14:48:48;2.83;;;1.20;;
22778;SDS011;11556;51.194;3.800;2023-04-24T14:51:13;2.83;;;1.40;;